createdAt,value
2022-11-23T00:00:06.766Z,1.04
2022-11-23T00:01:06.273Z,1.04
2022-11-23T00:02:07.063Z,1.04
2022-11-23T00:03:06.620Z,1.04
2022-11-23T00:04:06.765Z,1.04
2022-11-23T00:05:06.925Z,1.04
2022-11-23T00:06:07.065Z,1.04
2022-11-23T00:07:07.284Z,1.04
2022-11-23T00:08:07.367Z,1.04
2022-11-23T00:09:07.524Z,1.04
2022-11-23T00:10:07.676Z,1.04
2022-11-23T00:11:07.822Z,1.04
2022-11-23T00:12:07.925Z,1.04
2022-11-23T00:13:08.077Z,1.04
2022-11-23T00:14:08.425Z,1.04
2022-11-23T00:15:08.977Z,1.04
2022-11-23T00:16:08.561Z,1.04
2022-11-23T00:17:09.365Z,1.04
2022-11-23T00:18:08.846Z,1.04
2022-11-23T00:19:08.988Z,1.04
2022-11-23T00:20:09.135Z,1.04
2022-11-23T00:21:09.281Z,1.04
2022-11-23T00:22:09.430Z,1.04
2022-11-23T00:23:09.582Z,1.04
2022-11-23T00:24:09.742Z,1.04
2022-11-23T00:25:09.967Z,1.04
2022-11-23T00:26:10.052Z,1.04
2022-11-23T00:27:10.189Z,1.04
2022-11-23T00:28:10.351Z,1.04
2022-11-23T00:29:10.508Z,1.04
2022-11-23T00:30:11.467Z,1.04
2022-11-23T00:31:10.788Z,1.04
2022-11-23T00:32:10.961Z,1.04
2022-11-23T00:33:11.152Z,1.04
2022-11-23T00:34:11.272Z,1.04
2022-11-23T00:35:11.469Z,1.04
2022-11-23T00:36:11.707Z,1.04
2022-11-23T00:37:12.253Z,1.04
2022-11-23T00:38:11.898Z,1.04
2022-11-23T00:39:12.108Z,1.04
2022-11-23T00:40:12.267Z,1.04
2022-11-23T00:41:12.414Z,1.04
2022-11-23T00:42:12.515Z,1.04
2022-11-23T00:43:12.664Z,1.04
2022-11-23T00:44:12.824Z,1.04
2022-11-23T00:45:13.523Z,1.04
2022-11-23T00:46:13.108Z,1.04
2022-11-23T00:47:13.270Z,1.04
2022-11-23T00:48:13.427Z,1.04
2022-11-23T00:49:13.586Z,1.04
2022-11-23T00:50:13.730Z,1.04
2022-11-23T00:51:13.877Z,1.04
2022-11-23T00:52:14.024Z,1.04
2022-11-23T00:53:14.193Z,1.04
2022-11-23T00:54:14.334Z,1.04
2022-11-23T00:55:14.485Z,1.04
2022-11-23T00:56:14.636Z,1.04
2022-11-23T00:57:14.749Z,1.04
2022-11-23T00:58:14.895Z,1.04
2022-11-23T00:59:15.044Z,1.04
2022-11-23T01:00:15.761Z,1.04
2022-11-23T01:01:15.384Z,1.04
2022-11-23T01:02:15.443Z,1.04
2022-11-23T01:03:15.543Z,1.04
2022-11-23T01:04:15.720Z,1.04
2022-11-23T01:05:16.300Z,1.04
2022-11-23T01:06:15.945Z,1.04
2022-11-23T01:07:16.140Z,1.04
2022-11-23T01:08:16.258Z,1.04
2022-11-23T01:09:16.410Z,1.04
2022-11-23T01:10:16.551Z,1.04
2022-11-23T01:11:16.705Z,1.04
2022-11-23T01:12:16.867Z,1.04
2022-11-23T01:13:16.959Z,1.04
2022-11-23T01:14:17.116Z,1.04
2022-11-23T01:15:17.878Z,1.04
2022-11-23T01:16:23.526Z,1.04
2022-11-23T01:17:17.565Z,1.04
2022-11-23T01:18:17.737Z,1.04
2022-11-23T01:19:17.817Z,1.04
2022-11-23T01:20:17.959Z,1.04
2022-11-23T01:21:18.116Z,1.04
2022-11-23T01:22:18.276Z,1.04
2022-11-23T01:23:18.433Z,1.04
2022-11-23T01:24:18.579Z,1.04
2022-11-23T01:25:18.732Z,1.04
2022-11-23T01:26:18.874Z,1.04
2022-11-23T01:27:19.030Z,1.04
2022-11-23T01:28:19.179Z,1.04
2022-11-23T01:29:19.332Z,1.04
2022-11-23T01:30:20.151Z,1.04
2022-11-23T01:31:19.635Z,1.04
2022-11-23T01:32:19.798Z,1.04
2022-11-23T01:33:19.943Z,1.04
2022-11-23T01:34:20.091Z,1.04
2022-11-23T01:35:20.246Z,1.04
2022-11-23T01:36:20.393Z,1.04
2022-11-23T01:37:20.546Z,1.04
2022-11-23T01:38:20.701Z,1.04
2022-11-23T01:39:20.878Z,1.04
2022-11-23T01:40:20.997Z,1.04
2022-11-23T01:41:21.149Z,1.04
2022-11-23T01:42:21.319Z,1.04
2022-11-23T01:43:21.412Z,1.04
2022-11-23T01:44:21.511Z,1.04
2022-11-23T01:45:22.282Z,1.04
2022-11-23T01:46:21.779Z,1.04
2022-11-23T01:47:21.887Z,1.04
2022-11-23T01:48:22.017Z,1.04
2022-11-23T01:49:22.115Z,1.04
2022-11-23T01:50:22.274Z,1.04
2022-11-23T01:51:22.421Z,1.04
2022-11-23T01:52:22.573Z,1.04
2022-11-23T01:53:22.719Z,1.04
2022-11-23T01:54:22.872Z,1.04
2022-11-23T01:55:23.026Z,1.04
2022-11-23T01:56:23.126Z,1.04
2022-11-23T01:57:23.272Z,1.04
2022-11-23T01:58:23.430Z,1.04
2022-11-23T01:59:23.586Z,1.04
2022-11-23T02:00:24.207Z,1.04
2022-11-23T02:01:23.890Z,1.04
2022-11-23T02:02:23.934Z,1.04
2022-11-23T02:03:24.030Z,1.04
2022-11-23T02:04:24.197Z,1.04
2022-11-23T02:05:24.336Z,1.04
2022-11-23T02:06:24.499Z,1.04
2022-11-23T02:07:24.628Z,1.04
2022-11-23T02:08:24.748Z,1.04
2022-11-23T02:09:24.913Z,1.04
2022-11-23T02:10:25.051Z,1.04
2022-11-23T02:11:25.210Z,1.04
2022-11-23T02:12:25.330Z,1.04
2022-11-23T02:13:25.433Z,1.04
2022-11-23T02:14:25.625Z,1.04
2022-11-23T02:15:26.270Z,1.04
2022-11-23T02:16:25.886Z,1.04
2022-11-23T02:17:26.004Z,1.04
2022-11-23T02:18:26.171Z,1.04
2022-11-23T02:19:26.323Z,1.04
2022-11-23T02:20:26.455Z,1.04
2022-11-23T02:21:26.612Z,1.04
2022-11-23T02:22:26.765Z,1.04
2022-11-23T02:23:26.924Z,1.04
2022-11-23T02:24:27.064Z,1.04
2022-11-23T02:25:27.219Z,1.04
2022-11-23T02:26:27.381Z,1.04
2022-11-23T02:27:27.520Z,1.04
2022-11-23T02:28:27.667Z,1.04
2022-11-23T02:29:27.826Z,1.04
2022-11-23T02:30:28.491Z,1.04
2022-11-23T02:31:28.074Z,1.04
2022-11-23T02:32:28.271Z,1.04
2022-11-23T02:33:28.370Z,1.04
2022-11-23T02:34:28.537Z,1.04
2022-11-23T02:35:28.684Z,1.04
2022-11-23T02:36:28.831Z,1.04
2022-11-23T02:37:28.995Z,1.04
2022-11-23T02:38:29.106Z,1.04
2022-11-23T02:39:29.382Z,1.04
2022-11-23T02:40:29.404Z,1.04
2022-11-23T02:41:29.594Z,1.04
2022-11-23T02:42:29.766Z,1.04
2022-11-23T02:43:29.891Z,1.04
2022-11-23T02:44:29.987Z,1.04
2022-11-23T02:45:30.915Z,1.04
2022-11-23T02:46:30.237Z,1.04
2022-11-23T02:47:30.488Z,1.04
2022-11-23T02:48:30.502Z,1.04
2022-11-23T02:49:30.942Z,1.04
2022-11-23T02:50:30.801Z,1.04
2022-11-23T02:51:30.918Z,1.04
2022-11-23T02:52:31.055Z,1.04
2022-11-23T02:53:31.160Z,1.04
2022-11-23T02:54:31.308Z,1.04
2022-11-23T02:55:31.459Z,1.04
2022-11-23T02:56:31.623Z,1.04
2022-11-23T02:57:31.777Z,1.04
2022-11-23T02:58:31.868Z,1.04
2022-11-23T02:59:32.312Z,1.04
2022-11-23T03:00:32.764Z,1.04
2022-11-23T03:01:32.212Z,1.04
2022-11-23T03:02:32.361Z,1.04
2022-11-23T03:03:32.521Z,1.04
2022-11-23T03:04:32.686Z,1.04
2022-11-23T03:05:32.829Z,1.04
2022-11-23T03:06:32.923Z,1.04
2022-11-23T03:07:33.087Z,1.04
2022-11-23T03:08:33.227Z,1.04
2022-11-23T03:09:33.655Z,1.04
2022-11-23T03:10:33.533Z,1.04
2022-11-23T03:11:33.628Z,1.04
2022-11-23T03:12:33.784Z,1.04
2022-11-23T03:13:33.933Z,1.04
2022-11-23T03:14:34.095Z,1.04
2022-11-23T03:15:34.817Z,1.04
2022-11-23T03:16:34.374Z,1.04
2022-11-23T03:17:34.559Z,1.04
2022-11-23T03:18:34.696Z,1.04
2022-11-23T03:19:35.205Z,1.04
2022-11-23T03:20:35.003Z,1.04
2022-11-23T03:21:35.148Z,1.04
2022-11-23T03:22:35.259Z,1.04
2022-11-23T03:23:35.398Z,1.04
2022-11-23T03:24:35.509Z,1.04
2022-11-23T03:25:35.610Z,1.04
2022-11-23T03:26:35.768Z,1.04
2022-11-23T03:27:35.864Z,1.04
2022-11-23T03:28:36.007Z,1.04
2022-11-23T03:29:36.874Z,1.04
2022-11-23T03:30:36.300Z,1.04
2022-11-23T03:31:36.408Z,1.04
2022-11-23T03:32:36.593Z,1.04
2022-11-23T03:33:37.284Z,1.04
2022-11-23T03:34:36.871Z,1.04
2022-11-23T03:35:36.980Z,1.04
2022-11-23T03:36:37.117Z,1.04
2022-11-23T03:37:37.222Z,1.04
2022-11-23T03:38:37.372Z,1.04
2022-11-23T03:39:37.641Z,1.04
2022-11-23T03:40:37.678Z,1.04
2022-11-23T03:41:37.824Z,1.04
2022-11-23T03:42:37.982Z,1.04
2022-11-23T03:43:38.127Z,1.04
2022-11-23T03:44:38.755Z,1.04
2022-11-23T03:45:38.369Z,1.04
2022-11-23T03:46:38.530Z,1.04
2022-11-23T03:47:38.684Z,1.04
2022-11-23T03:48:38.779Z,1.04
2022-11-23T03:49:38.942Z,1.04
2022-11-23T03:50:39.044Z,1.04
2022-11-23T03:51:39.183Z,1.04
2022-11-23T03:52:39.287Z,1.04
2022-11-23T03:53:39.450Z,1.04
2022-11-23T03:54:39.599Z,1.04
2022-11-23T03:55:39.753Z,1.04
2022-11-23T03:56:39.914Z,1.04
2022-11-23T03:57:40.051Z,1.04
2022-11-23T03:58:40.157Z,1.04
2022-11-23T03:59:40.818Z,1.04
2022-11-23T04:00:40.496Z,1.04
2022-11-23T04:01:40.548Z,1.04
2022-11-23T04:02:40.656Z,1.04
2022-11-23T04:03:40.810Z,1.04
2022-11-23T04:04:40.966Z,1.04
2022-11-23T04:05:41.103Z,1.04
2022-11-23T04:06:41.211Z,1.04
2022-11-23T04:07:41.360Z,1.04
2022-11-23T04:08:41.478Z,1.04
2022-11-23T04:09:41.636Z,1.04
2022-11-23T04:10:41.782Z,1.04
2022-11-23T04:11:41.915Z,1.04
2022-11-23T04:12:42.083Z,1.04
2022-11-23T04:13:42.227Z,1.04
2022-11-23T04:14:42.873Z,1.04
2022-11-23T04:15:42.516Z,1.04
2022-11-23T04:16:42.675Z,1.04
2022-11-23T04:17:42.782Z,1.04
2022-11-23T04:18:42.926Z,1.04
2022-11-23T04:19:43.033Z,1.04
2022-11-23T04:20:43.177Z,1.04
2022-11-23T04:21:43.327Z,1.04
2022-11-23T04:22:43.516Z,1.04
2022-11-23T04:23:43.670Z,1.04
2022-11-23T04:24:43.792Z,1.04
2022-11-23T04:25:43.965Z,1.04
2022-11-23T04:26:44.104Z,1.04
2022-11-23T04:27:44.235Z,1.04
2022-11-23T04:28:44.394Z,1.04
2022-11-23T04:29:45.077Z,1.04
2022-11-23T04:30:44.686Z,1.04
2022-11-23T04:31:44.839Z,1.04
2022-11-23T04:32:44.997Z,1.04
2022-11-23T04:33:45.076Z,1.04
2022-11-23T04:34:45.231Z,1.04
2022-11-23T04:35:45.342Z,1.04
2022-11-23T04:36:45.497Z,1.04
2022-11-23T04:37:45.659Z,1.04
2022-11-23T04:38:45.754Z,1.04
2022-11-23T04:39:45.901Z,1.04
2022-11-23T04:40:46.051Z,1.04
2022-11-23T04:41:46.223Z,1.04
2022-11-23T04:42:46.369Z,1.04
2022-11-23T04:43:46.515Z,1.04
2022-11-23T04:44:47.162Z,1.04
2022-11-23T04:45:46.754Z,1.04
2022-11-23T04:46:46.915Z,1.04
2022-11-23T04:47:47.080Z,1.04
2022-11-23T04:48:47.223Z,1.04
2022-11-23T04:49:47.329Z,1.04
2022-11-23T04:50:48.505Z,1.04
2022-11-23T04:51:47.625Z,1.04
2022-11-23T04:52:47.772Z,1.04
2022-11-23T04:53:47.932Z,1.04
2022-11-23T04:54:48.074Z,1.04
2022-11-23T04:55:48.243Z,1.04
2022-11-23T04:56:48.325Z,1.04
2022-11-23T04:57:48.458Z,1.04
2022-11-23T04:58:48.664Z,1.04
2022-11-23T04:59:48.784Z,1.04
2022-11-23T05:00:48.973Z,1.04
2022-11-23T05:01:49.077Z,1.04
2022-11-23T05:02:49.195Z,1.04
2022-11-23T05:03:49.344Z,1.04
2022-11-23T05:04:49.501Z,1.04
2022-11-23T05:05:49.598Z,1.04
2022-11-23T05:06:49.770Z,1.04
2022-11-23T05:07:50.443Z,1.04
2022-11-23T05:08:49.994Z,1.04
2022-11-23T05:09:50.157Z,1.04
2022-11-23T05:10:50.296Z,1.04
2022-11-23T05:11:50.452Z,1.04
2022-11-23T05:12:50.615Z,1.04
2022-11-23T05:13:50.707Z,1.04
2022-11-23T05:14:51.477Z,1.04
2022-11-23T05:15:51.009Z,1.04
2022-11-23T05:16:51.102Z,1.04
2022-11-23T05:17:54.060Z,1.04
2022-11-23T05:18:51.414Z,1.04
2022-11-23T05:19:51.523Z,1.04
2022-11-23T05:20:51.668Z,1.04
2022-11-23T05:21:51.824Z,1.04
2022-11-23T05:22:51.982Z,1.04
2022-11-23T05:23:52.130Z,1.04
2022-11-23T05:24:52.223Z,1.04
2022-11-23T05:25:52.386Z,1.04
2022-11-23T05:26:56.148Z,1.04
2022-11-23T05:27:52.626Z,1.04
2022-11-23T05:28:52.782Z,1.04
2022-11-23T05:29:53.517Z,1.04
2022-11-23T05:30:53.042Z,1.04
2022-11-23T05:31:53.180Z,1.04
2022-11-23T05:32:53.332Z,1.04
2022-11-23T05:33:53.486Z,1.04
2022-11-23T05:34:53.595Z,1.04
2022-11-23T05:35:53.750Z,1.04
2022-11-23T05:36:53.891Z,1.04
2022-11-23T05:37:54.034Z,1.04
2022-11-23T05:38:54.165Z,1.04
2022-11-23T05:39:54.304Z,1.04
2022-11-23T05:40:54.440Z,1.04
2022-11-23T05:41:54.548Z,1.04
2022-11-23T05:42:54.691Z,1.04
2022-11-23T05:43:54.845Z,1.04
2022-11-23T05:44:55.520Z,1.04
2022-11-23T05:45:55.143Z,1.04
2022-11-23T05:46:55.306Z,1.04
2022-11-23T05:47:55.455Z,1.04
2022-11-23T05:48:55.607Z,1.04
2022-11-23T05:49:55.767Z,1.04
2022-11-23T05:50:57.711Z,1.04
2022-11-23T05:51:56.017Z,1.04
2022-11-23T05:52:56.170Z,1.04
2022-11-23T05:53:56.311Z,2
2022-11-23T05:54:56.471Z,2
2022-11-23T05:55:56.631Z,2
2022-11-23T05:56:56.766Z,2
2022-11-23T05:57:56.921Z,3.04
2022-11-23T05:58:57.072Z,3.04
2022-11-23T05:59:57.789Z,3.04
2022-11-23T06:00:57.359Z,4
2022-11-23T06:01:57.472Z,4
2022-11-23T06:02:57.629Z,5.04
2022-11-23T06:03:57.881Z,6
2022-11-23T06:04:57.935Z,7.04
2022-11-23T06:05:58.083Z,9.04
2022-11-23T06:06:58.230Z,10
2022-11-23T06:07:58.380Z,12
2022-11-23T06:08:58.494Z,15.04
2022-11-23T06:09:58.636Z,18
2022-11-23T06:10:58.789Z,22
2022-11-23T06:11:58.943Z,25.04
2022-11-23T06:12:59.067Z,31.04
2022-11-23T06:13:59.192Z,35.04
2022-11-23T06:14:59.849Z,42
2022-11-23T06:15:59.483Z,49.04
2022-11-23T06:16:59.601Z,56
2022-11-23T06:17:59.693Z,65.04
2022-11-23T06:18:59.849Z,75.04
2022-11-23T06:20:00.012Z,97.04
2022-11-23T06:21:00.109Z,108
2022-11-23T06:22:00.258Z,122
2022-11-23T06:23:00.417Z,139.04
2022-11-23T06:24:00.558Z,158
2022-11-23T06:25:00.713Z,174.08
2022-11-23T06:26:00.864Z,192
2022-11-23T06:27:00.978Z,216
2022-11-23T06:28:01.117Z,237.12
2022-11-23T06:29:01.220Z,263.04
2022-11-23T06:30:01.400Z,284
2022-11-23T06:31:01.997Z,309.12
2022-11-23T06:32:01.564Z,341.12
2022-11-23T06:33:01.665Z,368
2022-11-23T06:34:01.818Z,405.12
2022-11-23T06:35:01.962Z,432
2022-11-23T06:36:02.074Z,469.12
2022-11-23T06:37:02.228Z,501.12
2022-11-23T06:38:02.371Z,542.08
2022-11-23T06:39:02.489Z,575.04
2022-11-23T06:40:02.640Z,610.24
2022-11-23T06:41:02.790Z,655.04
2022-11-23T06:42:23.635Z,695.04
2022-11-23T06:43:03.052Z,741.12
2022-11-23T06:44:03.184Z,802.56
2022-11-23T06:45:03.939Z,859.52
2022-11-23T06:46:03.486Z,918.4
2022-11-23T06:47:03.580Z,996.48
2022-11-23T06:48:03.700Z,1055.36
2022-11-23T06:49:03.851Z,1124.48
2022-11-23T06:50:03.948Z,1174.4
2022-11-23T06:51:04.095Z,1237.12
2022-11-23T06:52:04.245Z,1275.52
2022-11-23T06:53:04.400Z,1387.52
2022-11-23T06:54:04.547Z,1442.56
2022-11-23T06:55:04.701Z,1509.12
2022-11-23T06:56:04.861Z,1555.2
2022-11-23T06:57:05.012Z,1619.2
2022-11-23T06:58:05.166Z,1669.12
2022-11-23T06:59:05.305Z,1735.68
2022-11-23T07:00:06.329Z,1786.88
2022-11-23T07:01:05.784Z,1856
2022-11-23T07:02:05.913Z,1918.72
2022-11-23T07:03:06.092Z,1996.8
2022-11-23T07:04:06.254Z,2059.52
2022-11-23T07:05:06.419Z,2144
2022-11-23T07:06:06.561Z,2220.8
2022-11-23T07:07:06.749Z,2336
2022-11-23T07:08:06.873Z,2428.16
2022-11-23T07:09:07.021Z,2553.6
2022-11-23T07:10:07.621Z,2664.96
2022-11-23T07:11:07.279Z,2780.16
2022-11-23T07:12:07.444Z,2854.4
2022-11-23T07:13:07.574Z,2926.08
2022-11-23T07:14:07.739Z,2984.96
2022-11-23T07:15:08.518Z,3056.64
2022-11-23T07:16:08.042Z,3110.4
2022-11-23T07:17:08.183Z,3207.68
2022-11-23T07:18:08.516Z,3292.16
2022-11-23T07:19:08.460Z,3430.4
2022-11-23T07:20:08.596Z,3466.24
2022-11-23T07:21:08.742Z,3507.2
2022-11-23T07:22:08.884Z,3581.44
2022-11-23T07:23:09.046Z,3645.44
2022-11-23T07:24:09.172Z,3850.24
2022-11-23T07:25:09.293Z,3888.64
2022-11-23T07:26:09.452Z,3898.88
2022-11-23T07:27:09.600Z,4108.8
2022-11-23T07:28:09.751Z,4088.32
2022-11-23T07:29:09.899Z,3901.44
2022-11-23T07:30:10.701Z,3827.2
2022-11-23T07:31:10.197Z,3965.44
2022-11-23T07:32:10.359Z,4602.88
2022-11-23T07:33:10.522Z,5596.16
2022-11-23T07:34:10.625Z,6712.32
2022-11-23T07:35:10.761Z,7009.28
2022-11-23T07:36:10.916Z,6696.96
2022-11-23T07:37:11.062Z,6722.56
2022-11-23T07:38:11.165Z,7285.76
2022-11-23T07:39:11.316Z,7777.28
2022-11-23T07:40:11.469Z,8089.6
2022-11-23T07:41:11.623Z,9395.2
2022-11-23T07:42:31.467Z,9502.72
2022-11-23T07:43:11.927Z,6871.04
2022-11-23T07:44:12.077Z,6261.76
2022-11-23T07:45:13.442Z,6159.36
2022-11-23T07:46:12.385Z,5934.08
2022-11-23T07:47:12.533Z,5580.8
2022-11-23T07:48:12.621Z,5544.96
2022-11-23T07:49:12.777Z,5580.8
2022-11-23T07:50:12.881Z,5867.52
2022-11-23T07:51:12.972Z,8668.16
2022-11-23T07:52:13.070Z,11601.92
2022-11-23T07:53:13.176Z,9620.479
2022-11-23T07:54:13.280Z,7598.08
2022-11-23T07:55:13.434Z,7603.2
2022-11-23T07:56:13.584Z,8110.08
2022-11-23T07:57:13.733Z,8832
2022-11-23T07:58:13.884Z,9354.24
2022-11-23T07:59:13.988Z,9656.319
2022-11-23T08:00:14.632Z,10065.92
2022-11-23T08:01:14.300Z,10588.16
2022-11-23T08:02:14.501Z,11356.16
2022-11-23T08:03:29.266Z,12083.2
2022-11-23T08:04:14.754Z,15544.319
2022-11-23T08:05:14.903Z,16578.56
2022-11-23T08:06:15.066Z,15738.88
2022-11-23T08:07:15.205Z,11827.2
2022-11-23T08:08:15.317Z,10997.76
2022-11-23T08:09:15.457Z,10823.68
2022-11-23T08:10:15.620Z,10711.04
2022-11-23T08:11:15.764Z,10618.88
2022-11-23T08:12:15.914Z,10639.359
2022-11-23T08:13:16.064Z,10567.68
2022-11-23T08:14:16.224Z,10439.68
2022-11-23T08:15:16.900Z,10332.16
2022-11-23T08:16:16.510Z,10506.24
2022-11-23T08:17:16.666Z,12226.56
2022-11-23T08:18:16.819Z,14581.76
2022-11-23T08:19:16.973Z,20070.4
2022-11-23T08:20:17.124Z,17090.56
2022-11-23T08:21:17.275Z,12206.08
2022-11-23T08:22:17.432Z,9850.88
2022-11-23T08:23:17.591Z,9195.52
2022-11-23T08:24:17.763Z,8698.88
2022-11-23T08:25:17.900Z,8545.28
2022-11-23T08:26:18.038Z,10782.72
2022-11-23T08:27:18.191Z,8719.359
2022-11-23T08:28:18.284Z,12369.92
2022-11-23T08:29:18.434Z,18647.04
2022-11-23T08:30:19.077Z,16701.44
2022-11-23T08:31:18.733Z,12339.2
2022-11-23T08:32:18.895Z,9082.88
2022-11-23T08:33:19.046Z,8320
2022-11-23T08:34:19.201Z,17571.84
2022-11-23T08:35:19.351Z,13998.08
2022-11-23T08:36:19.505Z,19568.64
2022-11-23T08:37:19.596Z,18964.48
2022-11-23T08:38:19.752Z,18667.52
2022-11-23T08:39:19.906Z,18831.36
2022-11-23T08:40:24.936Z,17960.96
2022-11-23T08:41:20.206Z,19169.28
2022-11-23T08:42:20.321Z,19363.84
2022-11-23T08:43:20.469Z,17981.44
2022-11-23T08:44:20.610Z,19804.16
2022-11-23T08:45:21.311Z,19363.84
2022-11-23T08:46:20.912Z,13936.64
2022-11-23T08:47:21.066Z,17745.92
2022-11-23T08:48:21.213Z,19804.16
2022-11-23T08:49:21.368Z,16619.52
2022-11-23T08:50:21.516Z,19435.52
2022-11-23T08:51:21.669Z,19374.08
2022-11-23T08:52:21.821Z,19097.6
2022-11-23T08:53:21.985Z,19271.68
2022-11-23T08:54:22.128Z,16138.239
2022-11-23T08:55:22.336Z,18974.72
2022-11-23T08:56:22.526Z,18800.64
2022-11-23T08:57:22.616Z,18360.32
2022-11-23T08:58:22.786Z,17971.2
2022-11-23T08:59:22.936Z,18268.16
2022-11-23T09:00:23.764Z,18483.2
2022-11-23T09:01:23.351Z,18350.08
2022-11-23T09:02:23.336Z,18186.24
2022-11-23T09:03:23.487Z,18278.4
2022-11-23T09:04:23.635Z,18513.92
2022-11-23T09:05:23.800Z,18606.08
2022-11-23T09:06:23.923Z,18575.36
2022-11-23T09:07:24.120Z,18298.88
2022-11-23T09:08:24.196Z,18309.12
2022-11-23T09:09:24.371Z,18135.04
2022-11-23T09:10:24.496Z,17909.76
2022-11-23T09:11:24.647Z,17725.44
2022-11-23T09:12:24.806Z,17664
2022-11-23T09:13:24.900Z,17684.48
2022-11-23T09:14:25.058Z,17776.64
2022-11-23T09:15:25.783Z,18042.88
2022-11-23T09:16:27.478Z,18247.68
2022-11-23T09:17:25.505Z,18257.92
2022-11-23T09:18:25.657Z,18411.52
2022-11-23T09:19:25.842Z,18544.64
2022-11-23T09:20:25.956Z,18616.32
2022-11-23T09:21:26.111Z,17510.4
2022-11-23T09:22:26.265Z,14981.12
2022-11-23T09:23:26.417Z,14929.92
2022-11-23T09:24:26.628Z,14469.12
2022-11-23T09:25:26.722Z,13342.72
2022-11-23T09:26:26.871Z,11479.04
2022-11-23T09:27:27.031Z,11673.6
2022-11-23T09:28:27.257Z,11274.24
2022-11-23T09:29:27.840Z,11038.72
2022-11-23T09:30:28.160Z,11438.08
2022-11-23T09:31:27.607Z,11499.52
2022-11-23T09:32:27.735Z,11427.84
2022-11-23T09:33:27.873Z,12001.279
2022-11-23T09:34:28.033Z,12503.04
2022-11-23T09:35:28.568Z,12728.319
2022-11-23T09:36:28.319Z,12328.96
2022-11-23T09:37:28.485Z,12421.12
2022-11-23T09:38:44.698Z,14397.439
2022-11-23T09:39:28.783Z,15001.6
2022-11-23T09:40:28.934Z,13957.12
2022-11-23T09:41:29.033Z,14673.92
2022-11-23T09:42:29.210Z,15882.239
2022-11-23T09:43:29.353Z,14336
2022-11-23T09:44:29.748Z,12830.72
2022-11-23T09:45:30.368Z,13025.279
2022-11-23T09:46:32.917Z,12298.239
2022-11-23T09:47:29.857Z,12257.279
2022-11-23T09:48:30.005Z,12298.239
2022-11-23T09:49:30.150Z,12339.2
2022-11-23T09:50:30.306Z,12421.12
2022-11-23T09:51:30.454Z,12861.439
2022-11-23T09:52:30.619Z,13219.84
2022-11-23T09:53:30.752Z,12810.239
2022-11-23T09:54:31.130Z,12677.12
2022-11-23T09:55:31.013Z,12605.439
2022-11-23T09:56:31.173Z,12625.92
2022-11-23T09:57:31.340Z,12615.68
2022-11-23T09:58:31.424Z,12533.76
2022-11-23T09:59:31.534Z,12851.2
2022-11-23T10:00:32.293Z,12564.479
2022-11-23T10:01:31.840Z,12462.08
2022-11-23T10:02:32.010Z,12021.76
2022-11-23T10:03:32.131Z,11540.479
2022-11-23T10:04:32.389Z,11130.88
2022-11-23T10:05:32.390Z,10926.08
2022-11-23T10:06:32.533Z,10823.68
2022-11-23T10:07:32.839Z,10854.399
2022-11-23T10:08:32.837Z,10470.399
2022-11-23T10:09:33.019Z,10378.24
2022-11-23T10:10:33.142Z,10414.08
2022-11-23T10:11:33.295Z,10485.76
2022-11-23T10:12:37.267Z,10659.84
2022-11-23T10:13:33.578Z,10885.12
2022-11-23T10:14:33.915Z,11120.64
2022-11-23T10:15:35.200Z,11673.6
2022-11-23T10:16:33.949Z,11530.239
2022-11-23T10:17:34.093Z,11499.52
2022-11-23T10:18:34.257Z,11540.479
2022-11-23T10:19:34.431Z,11929.6
2022-11-23T10:20:35.189Z,11816.96
2022-11-23T10:21:34.661Z,11868.16
2022-11-23T10:22:34.824Z,12021.76
2022-11-23T10:23:34.951Z,12042.239
2022-11-23T10:24:35.354Z,12032
2022-11-23T10:25:39.023Z,12103.68
2022-11-23T10:26:35.408Z,12236.8
2022-11-23T10:27:35.562Z,12503.04
2022-11-23T10:28:35.659Z,13987.84
2022-11-23T10:29:35.796Z,13004.8
2022-11-23T10:30:35.970Z,12646.399
2022-11-23T10:31:36.009Z,12636.16
2022-11-23T10:32:36.194Z,12666.88
2022-11-23T10:33:36.396Z,12759.04
2022-11-23T10:34:36.595Z,12974.08
2022-11-23T10:35:37.147Z,13076.479
2022-11-23T10:36:37.975Z,13168.64
2022-11-23T10:37:37.323Z,14376.96
2022-11-23T10:38:37.522Z,15933.439
2022-11-23T10:39:38.109Z,16373.76
2022-11-23T10:40:37.764Z,14878.72
2022-11-23T10:41:37.934Z,16097.279
2022-11-23T10:42:38.075Z,17571.84
2022-11-23T10:43:38.266Z,17571.84
2022-11-23T10:44:39.209Z,17080.32
2022-11-23T10:45:38.584Z,17141.76
2022-11-23T10:46:38.699Z,15370.239
2022-11-23T10:47:38.847Z,12154.88
2022-11-23T10:48:38.998Z,16138.239
2022-11-23T10:49:39.150Z,15790.08
2022-11-23T10:50:39.291Z,15738.88
2022-11-23T10:51:39.449Z,15534.08
2022-11-23T10:52:39.594Z,14540.8
2022-11-23T10:53:39.778Z,14530.56
2022-11-23T10:54:39.882Z,14510.08
2022-11-23T10:55:40.099Z,13527.04
2022-11-23T10:56:40.257Z,12902.399
2022-11-23T10:57:40.395Z,10670.08
2022-11-23T10:58:40.551Z,10004.479
2022-11-23T10:59:41.400Z,10721.279
2022-11-23T11:00:41.078Z,10255.359
2022-11-23T11:01:40.997Z,9809.92
2022-11-23T11:02:41.116Z,9103.359
2022-11-23T11:03:41.268Z,9410.56
2022-11-23T11:04:41.417Z,10577.92
2022-11-23T11:06:08.935Z,11601.92
2022-11-23T11:06:41.722Z,10936.319
2022-11-23T11:07:41.945Z,9984
2022-11-23T11:08:42.037Z,9512.96
2022-11-23T11:09:42.143Z,9564.16
2022-11-23T11:10:42.302Z,10444.8
2022-11-23T11:11:42.410Z,11130.88
2022-11-23T11:12:42.579Z,11663.359
2022-11-23T11:13:42.658Z,11806.72
2022-11-23T11:14:43.411Z,11253.76
2022-11-23T11:15:47.494Z,11223.04
2022-11-23T11:16:46.554Z,11601.92
2022-11-23T11:17:43.208Z,11571.2
2022-11-23T11:18:43.368Z,11540.479
2022-11-23T11:19:43.467Z,11479.04
2022-11-23T11:20:43.683Z,11397.12
2022-11-23T11:21:43.766Z,11366.399
2022-11-23T11:22:47.853Z,11264
2022-11-23T11:23:44.091Z,11182.08
2022-11-23T11:24:44.271Z,11130.88
2022-11-23T11:25:44.638Z,11048.96
2022-11-23T11:26:44.496Z,10967.04
2022-11-23T11:27:44.677Z,10864.64
2022-11-23T11:28:44.793Z,10844.16
2022-11-23T11:29:45.467Z,10424.319
2022-11-23T11:30:45.095Z,8576
2022-11-23T11:31:45.281Z,9154.56
2022-11-23T11:32:45.406Z,9313.28
2022-11-23T11:33:45.563Z,9277.439
2022-11-23T11:34:45.666Z,9006.08
2022-11-23T11:35:45.845Z,8852.479
2022-11-23T11:36:45.955Z,7669.76
2022-11-23T11:37:46.117Z,10373.12
2022-11-23T11:39:01.624Z,9118.72
2022-11-23T11:39:46.417Z,9057.28
2022-11-23T11:40:46.827Z,9538.56
2022-11-23T11:41:47.581Z,9497.6
2022-11-23T11:42:47.020Z,9251.84
2022-11-23T11:43:47.160Z,9830.399
2022-11-23T11:44:47.579Z,8791.04
2022-11-23T11:45:59.997Z,9272.319
2022-11-23T11:46:47.520Z,9287.68
2022-11-23T11:47:47.678Z,8284.16
2022-11-23T11:48:47.836Z,8811.52
2022-11-23T11:49:47.980Z,8970.24
2022-11-23T11:50:48.132Z,8151.04
2022-11-23T11:51:48.287Z,9390.08
2022-11-23T11:52:48.458Z,8299.52
2022-11-23T11:53:48.655Z,7669.76
2022-11-23T11:54:48.848Z,7224.32
2022-11-23T11:55:48.887Z,7168
2022-11-23T11:56:49.046Z,7132.16
2022-11-23T11:57:49.320Z,7045.12
2022-11-23T11:58:49.982Z,6999.04
2022-11-23T11:59:50.036Z,7142.4
2022-11-23T12:00:49.638Z,7311.36
2022-11-23T12:01:49.815Z,7306.24
2022-11-23T12:02:50.016Z,7050.24
2022-11-23T12:03:50.106Z,6727.68
2022-11-23T12:04:50.251Z,6548.48
2022-11-23T12:05:50.404Z,6517.76
2022-11-23T12:06:50.536Z,6579.2
2022-11-23T12:07:50.706Z,6666.24
2022-11-23T12:08:50.819Z,6799.36
2022-11-23T12:09:50.964Z,6881.28
2022-11-23T12:10:51.124Z,6993.92
2022-11-23T12:11:51.351Z,7091.2
2022-11-23T12:12:51.514Z,7193.6
2022-11-23T12:13:51.564Z,7296
2022-11-23T12:14:52.306Z,7470.08
2022-11-23T12:15:51.901Z,7644.16
2022-11-23T12:17:04.245Z,7818.24
2022-11-23T12:17:52.169Z,7915.52
2022-11-23T12:18:52.315Z,8048.64
2022-11-23T12:19:52.410Z,8212.48
2022-11-23T12:20:52.548Z,8320
2022-11-23T12:21:55.669Z,8478.72
2022-11-23T12:22:52.744Z,8565.76
2022-11-23T12:23:52.868Z,8601.6
2022-11-23T12:24:53.020Z,8657.92
2022-11-23T12:25:53.183Z,8724.479
2022-11-23T12:26:53.371Z,8770.56
2022-11-23T12:27:54.311Z,8796.16
2022-11-23T12:28:53.627Z,8867.84
2022-11-23T12:29:54.666Z,8842.24
2022-11-23T12:30:53.942Z,8867.84
2022-11-23T12:31:54.087Z,8770.56
2022-11-23T12:32:54.257Z,8698.88
2022-11-23T12:33:54.696Z,8591.359
2022-11-23T12:34:54.518Z,8499.2
2022-11-23T12:35:54.645Z,8350.72
2022-11-23T12:36:54.791Z,8238.08
2022-11-23T12:37:54.941Z,8033.28
2022-11-23T12:38:55.067Z,7889.92